Time;durP1;ratioP1;P1;durP2;ratioP2;P2;SDS_P1;SDS_P2;PMS_P1;PMS_P2;Temp;Humidity;BMP_temperature;BMP_pressure;BME280_temperature;BME280_humidity;BME280_pressure;Samples;Min_cycle;Max_cycle;Signal;HPM_P1;HPM_P2
2021/05/09 00:01:27;;;;;;;0.98;0.98;;;16.00;99.90;;;;;;4981011;28;20228;-81
2021/05/09 00:03:56;;;;;;;2.05;0.93;;;16.00;99.90;;;;;;4979114;28;20211;-81
2021/05/09 00:06:23;;;;;;;0.77;0.77;;;15.90;99.90;;;;;;4997032;28;20170;-81
2021/05/09 00:08:49;;;;;;;1.92;1.05;;;15.90;99.90;;;;;;4979206;28;20665;-81
2021/05/09 00:11:15;;;;;;;0.50;0.50;;;16.00;99.90;;;;;;4979011;28;20200;-81
2021/05/09 00:13:41;;;;;;;0.40;0.40;;;16.00;99.90;;;;;;4996621;28;20240;-81
2021/05/09 00:16:07;;;;;;;0.70;0.70;;;15.90;99.90;;;;;;4996324;28;20285;-81
2021/05/09 00:18:33;;;;;;;0.52;0.40;;;16.00;99.90;;;;;;4978956;28;20607;-81
2021/05/09 00:20:59;;;;;;;0.20;0.20;;;16.00;99.90;;;;;;4996305;28;20195;-81
2021/05/09 00:23:26;;;;;;;0.73;0.70;;;15.90;99.90;;;;;;4978918;28;20629;-81
2021/05/09 00:25:51;;;;;;;0.38;0.38;;;15.90;99.90;;;;;;4996282;28;20517;-81
2021/05/09 00:28:17;;;;;;;0.43;0.43;;;15.90;99.90;;;;;;4978722;28;20257;-81
2021/05/09 00:30:43;;;;;;;4.80;0.77;;;16.00;99.90;;;;;;4996176;28;20204;-81
2021/05/09 00:33:08;;;;;;;0.68;0.65;;;16.00;99.90;;;;;;4996225;28;20165;-81
2021/05/09 00:35:34;;;;;;;0.30;0.30;;;16.00;99.90;;;;;;4995860;28;20212;-81
2021/05/09 00:38:00;;;;;;;0.50;0.50;;;15.90;99.90;;;;;;4996002;28;20169;-81
2021/05/09 00:40:25;;;;;;;0.82;0.82;;;15.90;99.90;;;;;;4996000;28;20197;-81
2021/05/09 00:42:55;;;;;;;0.20;0.20;;;15.90;99.90;;;;;;4995141;28;20204;-81
2021/05/09 00:45:21;;;;;;;0.40;0.40;;;15.80;99.90;;;;;;4995812;28;20178;-81
2021/05/09 00:47:48;;;;;;;0.55;0.55;;;15.70;99.90;;;;;;4995720;28;20173;-81
2021/05/09 00:50:14;;;;;;;0.55;0.55;;;15.60;99.90;;;;;;4978371;28;20176;-81
2021/05/09 00:52:41;;;;;;;1.17;0.47;;;15.60;99.90;;;;;;4998140;28;20531;-81
2021/05/09 00:55:08;;;;;;;0.55;0.55;;;15.50;99.90;;;;;;4990151;28;20243;-81
2021/05/09 00:57:36;;;;;;;8.63;0.73;;;15.60;99.90;;;;;;4997024;28;20172;-81
2021/05/09 01:00:05;;;;;;;6.20;1.52;;;15.50;99.90;;;;;;5013515;28;20165;-81
2021/05/09 01:02:32;;;;;;;1.48;1.38;;;15.60;99.90;;;;;;4998774;28;20172;-80
2021/05/09 01:04:59;;;;;;;0.43;0.43;;;15.60;99.90;;;;;;4995652;28;20193;-81
2021/05/09 01:07:25;;;;;;;1.02;0.93;;;15.60;99.90;;;;;;4995686;28;20533;-81
2021/05/09 01:09:50;;;;;;;1.35;1.25;;;15.50;99.90;;;;;;4978165;28;20232;-80
2021/05/09 01:12:16;;;;;;;4.05;0.82;;;15.40;99.90;;;;;;4995389;28;20199;-80
2021/05/09 01:14:42;;;;;;;0.40;0.40;;;15.40;99.90;;;;;;4995304;28;20632;-80
2021/05/09 01:17:09;;;;;;;1.83;1.05;;;15.50;99.90;;;;;;4995350;28;20169;-80
2021/05/09 01:19:36;;;;;;;0.82;0.82;;;15.50;99.90;;;;;;4995442;28;20542;-80
2021/05/09 01:22:04;;;;;;;5.93;2.28;;;15.50;99.90;;;;;;4995483;28;20529;-80
2021/05/09 01:24:29;;;;;;;0.40;0.40;;;15.40;99.90;;;;;;4995154;28;20505;-80
2021/05/09 01:26:55;;;;;;;0.38;0.38;;;15.40;99.90;;;;;;4995276;28;20234;-81
2021/05/09 01:29:21;;;;;;;7.00;0.47;;;15.60;99.90;;;;;;4977926;28;20193;-80
2021/05/09 01:31:47;;;;;;;10.45;0.50;;;15.40;99.90;;;;;;4995003;28;20247;-80
2021/05/09 01:34:13;;;;;;;0.57;0.57;;;15.20;99.90;;;;;;4977486;28;20539;-81
2021/05/09 01:36:39;;;;;;;1.38;0.93;;;15.20;99.90;;;;;;4977540;28;20220;-81
2021/05/09 01:39:05;;;;;;;11.02;0.45;;;15.10;99.90;;;;;;4994888;28;20248;-80
2021/05/09 01:41:31;;;;;;;0.28;0.28;;;15.20;99.90;;;;;;4994806;28;20189;-81
2021/05/09 01:43:57;;;;;;;7.65;0.60;;;15.30;99.90;;;;;;4977451;28;20157;-81
2021/05/09 01:46:23;;;;;;;0.55;0.55;;;15.20;99.90;;;;;;4977377;28;20315;-81
2021/05/09 01:48:48;;;;;;;0.50;0.50;;;15.40;99.90;;;;;;4993388;28;20173;-80
2021/05/09 01:51:14;;;;;;;0.70;0.70;;;15.30;99.90;;;;;;4994664;28;20675;-81
2021/05/09 01:53:39;;;;;;;0.22;0.22;;;15.10;99.90;;;;;;4994605;28;20168;-80
2021/05/09 01:56:05;;;;;;;0.47;0.47;;;15.10;99.90;;;;;;4994357;28;20895;-80
2021/05/09 01:58:30;;;;;;;0.50;0.50;;;14.90;99.90;;;;;;4994561;28;20157;-80
2021/05/09 02:00:56;;;;;;;0.57;0.57;;;14.90;99.90;;;;;;4994418;28;20539;-80
2021/05/09 02:03:22;;;;;;;0.40;0.40;;;14.90;99.90;;;;;;4993298;28;20197;-81
2021/05/09 02:05:47;;;;;;;0.85;0.55;;;14.90;99.90;;;;;;4994476;28;20544;-81
2021/05/09 02:08:13;;;;;;;0.50;0.50;;;14.90;99.90;;;;;;4994382;28;20181;-80
2021/05/09 02:10:38;;;;;;;0.30;0.30;;;14.90;99.90;;;;;;4994356;28;20197;-80
2021/05/09 02:13:04;;;;;;;1.20;1.00;;;14.90;99.90;;;;;;4994281;28;20158;-81
2021/05/09 02:15:31;;;;;;;2.28;0.73;;;15.00;99.90;;;;;;4994266;28;20240;-81
2021/05/09 02:17:56;;;;;;;0.55;0.55;;;15.00;99.90;;;;;;4976855;28;20211;-80
2021/05/09 02:20:22;;;;;;;15.25;2.30;;;15.10;99.90;;;;;;4994183;28;20260;-81
2021/05/09 02:22:48;;;;;;;0.93;0.55;;;15.10;99.90;;;;;;4994216;28;20170;-81
2021/05/09 02:25:14;;;;;;;0.40;0.40;;;15.00;99.90;;;;;;4994048;28;20551;-80
2021/05/09 02:27:39;;;;;;;0.63;0.63;;;15.00;99.90;;;;;;4994047;28;20245;-81
2021/05/09 02:30:06;;;;;;;0.65;0.65;;;15.20;99.90;;;;;;4994057;28;20150;-80
2021/05/09 02:32:32;;;;;;;0.40;0.40;;;15.20;99.90;;;;;;4994014;28;20656;-80
2021/05/09 02:34:58;;;;;;;1.75;0.70;;;15.00;99.90;;;;;;4995438;28;20161;-80
2021/05/09 02:37:23;;;;;;;1.08;0.98;;;14.90;99.90;;;;;;4995188;28;20165;-80
2021/05/09 02:39:49;;;;;;;0.60;0.60;;;15.00;99.90;;;;;;4995306;28;20207;-80
2021/05/09 02:42:15;;;;;;;0.57;0.57;;;15.00;99.90;;;;;;4995199;28;20197;-80
2021/05/09 02:44:40;;;;;;;0.47;0.47;;;15.00;99.90;;;;;;4995033;28;20256;-81
2021/05/09 02:47:06;;;;;;;0.68;0.47;;;15.10;99.90;;;;;;4994777;28;20169;-80
2021/05/09 02:49:32;;;;;;;1.52;0.95;;;15.10;99.90;;;;;;4994840;28;20618;-81
2021/05/09 02:52:00;;;;;;;0.65;0.55;;;15.10;99.90;;;;;;4995102;28;20192;-80
2021/05/09 02:54:26;;;;;;;0.68;0.52;;;15.10;99.90;;;;;;4977426;28;20165;-80
2021/05/09 02:56:52;;;;;;;0.82;0.60;;;15.10;99.90;;;;;;4977715;28;20204;-81
2021/05/09 02:59:17;;;;;;;0.30;0.30;;;15.20;99.90;;;;;;4977558;28;20172;-80
2021/05/09 03:01:43;;;;;;;0.80;0.77;;;15.30;99.90;;;;;;4977623;28;20279;-80
2021/05/09 03:04:08;;;;;;;0.43;0.43;;;15.40;99.90;;;;;;4994601;28;20175;-81
2021/05/09 03:06:34;;;;;;;0.40;0.40;;;15.40;99.90;;;;;;4997544;28;20628;-81
2021/05/09 03:09:00;;;;;;;0.20;0.20;;;15.40;99.90;;;;;;4981347;28;20177;-80
2021/05/09 03:11:28;;;;;;;0.30;0.30;;;15.30;99.90;;;;;;4998871;28;20539;-81
2021/05/09 03:13:57;;;;;;;1.30;0.85;;;15.30;99.90;;;;;;4998869;28;20158;-81
2021/05/09 03:16:23;;;;;;;0.90;0.43;;;15.40;99.90;;;;;;4998650;28;20639;-81
2021/05/09 03:18:49;;;;;;;4.20;0.85;;;15.30;99.90;;;;;;4998598;28;20636;-80
2021/05/09 03:21:16;;;;;;;0.40;0.40;;;15.30;99.90;;;;;;4998441;28;20189;-80
2021/05/09 03:23:41;;;;;;;0.43;0.43;;;15.30;99.90;;;;;;4980979;28;20193;-81
2021/05/09 03:26:07;;;;;;;0.30;0.30;;;15.30;99.90;;;;;;4997422;28;20711;-80
2021/05/09 03:28:33;;;;;;;0.20;0.20;;;15.40;99.90;;;;;;4998573;28;20580;-80
2021/05/09 03:30:58;;;;;;;0.40;0.40;;;15.30;99.90;;;;;;4988004;28;20248;-80
2021/05/09 03:33:24;;;;;;;14.35;1.25;;;15.40;99.90;;;;;;5015377;28;20172;-80
2021/05/09 03:35:49;;;;;;;0.55;0.55;;;15.30;99.90;;;;;;5001590;28;20266;-80
2021/05/09 03:38:15;;;;;;;3.30;1.90;;;15.30;99.90;;;;;;4982083;28;20203;-80
2021/05/09 03:40:41;;;;;;;2.80;0.98;;;15.30;99.90;;;;;;4979774;28;20328;-80
2021/05/09 03:43:10;;;;;;;0.60;0.60;;;15.20;99.90;;;;;;4997334;28;20192;-80
2021/05/09 03:45:36;;;;;;;1.17;0.40;;;15.20;99.90;;;;;;4997079;28;20166;-80
2021/05/09 03:48:01;;;;;;;0.90;0.90;;;15.00;99.90;;;;;;4997051;28;20180;-80
2021/05/09 03:50:27;;;;;;;0.55;0.55;;;14.90;99.90;;;;;;4979484;28;20724;-80
2021/05/09 03:52:52;;;;;;;2.08;1.25;;;14.80;99.90;;;;;;4996939;28;20173;-80
2021/05/09 03:55:18;;;;;;;1.55;1.45;;;14.90;99.90;;;;;;4979146;28;20228;-80
2021/05/09 03:57:43;;;;;;;0.60;0.60;;;14.90;99.90;;;;;;4996741;28;20528;-80
2021/05/09 04:00:09;;;;;;;2.83;0.52;;;14.90;99.90;;;;;;4995449;28;20244;-80
2021/05/09 04:02:35;;;;;;;0.65;0.65;;;14.80;99.90;;;;;;4996731;28;20204;-79
2021/05/09 04:05:01;;;;;;;2.15;0.55;;;14.80;99.90;;;;;;4995158;28;20592;-80
2021/05/09 04:07:26;;;;;;;0.47;0.45;;;14.80;99.90;;;;;;4979124;28;20184;-80
2021/05/09 04:09:52;;;;;;;8.30;0.95;;;14.80;99.90;;;;;;4996484;28;20232;-80
2021/05/09 04:12:17;;;;;;;0.98;0.80;;;14.80;99.90;;;;;;4996461;28;20194;-80
2021/05/09 04:14:44;;;;;;;4.03;1.42;;;14.70;99.90;;;;;;4998610;28;20169;-79
2021/05/09 04:17:10;;;;;;;0.73;0.73;;;14.70;99.90;;;;;;4979880;28;20185;-79
2021/05/09 04:19:35;;;;;;;2.17;1.05;;;14.50;99.90;;;;;;4998029;28;20721;-79
2021/05/09 04:22:01;;;;;;;0.40;0.40;;;14.50;99.90;;;;;;4998317;28;20246;-80
2021/05/09 04:24:26;;;;;;;0.43;0.43;;;14.50;99.90;;;;;;4997704;28;20173;-80
2021/05/09 04:26:52;;;;;;;0.70;0.70;;;14.50;99.90;;;;;;4980071;28;20173;-80
2021/05/09 04:29:18;;;;;;;2.45;0.98;;;14.60;99.90;;;;;;4980472;28;20177;-80
2021/05/09 04:31:43;;;;;;;3.20;1.25;;;14.50;99.90;;;;;;4980105;28;20189;-80
2021/05/09 04:34:09;;;;;;;2.25;1.27;;;14.60;99.90;;;;;;4998511;28;20621;-80
2021/05/09 04:36:35;;;;;;;0.80;0.73;;;14.50;99.90;;;;;;4998280;28;20702;-80
2021/05/09 04:39:00;;;;;;;0.70;0.70;;;14.50;99.90;;;;;;4997914;28;20198;-80
2021/05/09 04:41:26;;;;;;;2.22;1.23;;;14.40;99.90;;;;;;4997343;28;20280;-81
2021/05/09 04:43:52;;;;;;;9.30;1.52;;;14.50;99.90;;;;;;4997328;28;20613;-80
2021/05/09 04:46:17;;;;;;;1.42;1.27;;;14.60;99.90;;;;;;4997058;28;20240;-79
2021/05/09 04:48:43;;;;;;;0.75;0.60;;;14.70;99.90;;;;;;4996850;28;20170;-80
2021/05/09 04:51:08;;;;;;;0.43;0.43;;;14.60;99.90;;;;;;4997156;28;20195;-80
2021/05/09 04:53:36;;;;;;;5.60;1.27;;;14.60;99.90;;;;;;4998309;28;20169;-80
2021/05/09 04:56:07;;;;;;;3.25;1.77;;;14.60;99.90;;;;;;4992615;28;20225;-80
2021/05/09 04:58:36;;;;;;;0.70;0.70;;;14.70;99.90;;;;;;4988034;28;20229;-80
2021/05/09 05:01:03;;;;;;;0.47;0.47;;;15.00;99.90;;;;;;4980747;28;20201;-80
2021/05/09 05:03:29;;;;;;;0.38;0.38;;;15.10;99.90;;;;;;4998831;28;20668;-80
2021/05/09 05:05:56;;;;;;;0.38;0.38;;;15.10;99.90;;;;;;4997449;28;20257;-81
2021/05/09 05:08:22;;;;;;;0.47;0.47;;;15.30;99.90;;;;;;4998152;28;20173;-80
2021/05/09 05:10:49;;;;;;;0.50;0.45;;;15.50;99.90;;;;;;4979093;28;20193;-80
2021/05/09 05:13:22;;;;;;;0.35;0.35;;;15.70;99.90;;;;;;4995998;28;20160;-80
2021/05/09 05:15:53;;;;;;;0.50;0.50;;;15.90;99.90;;;;;;4979507;28;20209;-80
2021/05/09 05:18:21;;;;;;;0.57;0.57;;;16.10;99.90;;;;;;4979249;28;20231;-80
2021/05/09 05:20:47;;;;;;;0.35;0.35;;;16.30;99.90;;;;;;4995868;28;20967;-81
2021/05/09 05:23:14;;;;;;;4.28;0.65;;;16.60;99.90;;;;;;4998976;28;20157;-81
2021/05/09 05:25:40;;;;;;;0.20;0.20;;;16.70;99.90;;;;;;4998043;28;20244;-81
2021/05/09 05:28:06;;;;;;;0.10;0.10;;;16.90;99.90;;;;;;4998826;28;20173;-80
2021/05/09 05:30:35;;;;;;;0.73;0.73;;;17.20;99.90;;;;;;4998151;28;20190;-81
2021/05/09 05:33:01;;;;;;;0.40;0.40;;;17.40;99.90;;;;;;4979449;28;20181;-80
2021/05/09 05:35:27;;;;;;;0.32;0.32;;;17.60;99.90;;;;;;4997183;28;20217;-80
2021/05/09 05:37:55;;;;;;;0.30;0.30;;;17.80;99.90;;;;;;4996484;28;20165;-80
2021/05/09 05:42:51;;;;;;;1.08;0.68;;;18.30;99.90;;;;;;5003658;28;20228;-80
2021/05/09 05:45:17;;;;;;;0.43;0.35;;;18.60;99.90;;;;;;4989089;28;20255;-79
2021/05/09 05:47:45;;;;;;;0.22;0.22;;;18.80;99.90;;;;;;5004501;28;20177;-81
2021/05/09 05:50:12;;;;;;;0.50;0.50;;;19.00;99.90;;;;;;5000799;28;20160;-81
2021/05/09 05:52:37;;;;;;;1.65;1.45;;;19.30;99.90;;;;;;4982333;28;20641;-81
2021/05/09 05:55:04;;;;;;;1.90;1.23;;;19.60;99.90;;;;;;4995571;28;20180;-81
2021/05/09 05:57:30;;;;;;;0.57;0.47;;;19.70;99.90;;;;;;4978816;28;20172;-81
2021/05/09 05:59:55;;;;;;;2.60;1.05;;;19.60;99.90;;;;;;4978535;28;20169;-81
2021/05/09 06:02:21;;;;;;;0.20;0.20;;;19.60;99.90;;;;;;4995747;28;20193;-81
2021/05/09 06:04:48;;;;;;;0.40;0.40;;;19.60;99.90;;;;;;4978496;28;20223;-79
2021/05/09 06:07:13;;;;;;;0.38;0.38;;;19.60;99.90;;;;;;5006637;28;20192;-79
2021/05/09 06:09:39;;;;;;;1.25;0.57;;;19.80;99.90;;;;;;5012969;28;20157;-79
2021/05/09 06:12:06;;;;;;;0.43;0.30;;;19.90;99.90;;;;;;5014898;28;20203;-80
2021/05/09 06:14:32;;;;;;;0.30;0.30;;;20.10;99.90;;;;;;4997887;28;20220;-79
2021/05/09 06:16:58;;;;;;;0.28;0.28;;;20.10;99.90;;;;;;4977737;28;20576;-78
2021/05/09 06:19:24;;;;;;;0.40;0.40;;;20.00;99.90;;;;;;4994797;28;20168;-78
2021/05/09 06:21:49;;;;;;;0.45;0.45;;;20.00;99.90;;;;;;4994439;28;20181;-80
2021/05/09 06:24:15;;;;;;;0.22;0.22;;;20.20;99.90;;;;;;4977144;28;20613;-80
2021/05/09 06:26:40;;;;;;;0.30;0.30;;;20.20;99.90;;;;;;4995007;28;20158;-79
2021/05/09 06:29:06;;;;;;;0.20;0.20;;;20.30;99.90;;;;;;4994478;28;20192;-78
2021/05/09 06:31:32;;;;;;;0.30;0.30;;;20.00;99.90;;;;;;4994412;28;20200;-78
2021/05/09 06:33:58;;;;;;;0.30;0.30;;;19.90;99.90;;;;;;4994276;28;20174;-78
2021/05/09 06:36:24;;;;;;;0.68;0.28;;;20.10;99.90;;;;;;4994186;28;20193;-78
2021/05/09 06:38:49;;;;;;;0.20;0.20;;;20.00;99.90;;;;;;4994648;28;20169;-79
2021/05/09 06:41:17;;;;;;;0.63;0.63;;;19.80;99.90;;;;;;4993289;28;20680;-79
2021/05/09 06:43:43;;;;;;;0.35;0.35;;;19.90;99.90;;;;;;4994147;28;20577;-80
2021/05/09 06:46:09;;;;;;;1.85;0.93;;;20.00;99.90;;;;;;4994578;28;20235;-79
2021/05/09 06:48:35;;;;;;;0.47;0.47;;;20.10;99.90;;;;;;4993969;28;20176;-78
2021/05/09 06:51:01;;;;;;;0.88;0.85;;;19.90;99.90;;;;;;4993983;28;20185;-78
2021/05/09 06:53:27;;;;;;;0.20;0.20;;;19.90;99.90;;;;;;4994359;28;20173;-78
2021/05/09 06:55:53;;;;;;;0.30;0.30;;;19.90;99.90;;;;;;4994023;28;20197;-77
2021/05/09 06:58:22;;;;;;;2.35;0.85;;;19.90;99.90;;;;;;4993956;28;20612;-79
2021/05/09 07:00:48;;;;;;;0.10;0.10;;;19.90;99.90;;;;;;4993986;28;20181;-79
2021/05/09 07:03:13;;;;;;;0.28;0.28;;;19.90;99.90;;;;;;4993855;28;20521;-78
2021/05/09 07:05:39;;;;;;;0.22;0.22;;;20.00;99.90;;;;;;4993703;28;20165;-79
2021/05/09 07:08:04;;;;;;;0.28;0.25;;;20.20;99.90;;;;;;4993648;28;20506;-78
2021/05/09 07:10:33;;;;;;;0.70;0.70;;;20.40;99.90;;;;;;4993600;28;20223;-77
2021/05/09 07:12:59;;;;;;;0.60;0.60;;;20.90;99.90;;;;;;4993433;28;20170;-78
2021/05/09 07:15:34;;;;;;;6.53;1.00;;;21.00;99.90;;;;;;4993383;28;20200;-77
2021/05/09 07:18:14;;;;;;;0.20;0.20;;;21.70;99.90;;;;;;4993476;28;20224;-77
2021/05/09 07:20:43;;;;;;;1.55;0.47;;;22.50;99.90;;;;;;4975831;28;20192;-78
2021/05/09 07:23:11;;;;;;;0.20;0.20;;;22.70;99.90;;;;;;4993717;28;20150;-80
2021/05/09 07:25:36;;;;;;;1.75;0.60;;;22.60;99.90;;;;;;4976237;28;20251;-80
2021/05/09 07:28:09;;;;;;;0.95;0.32;;;23.30;99.90;;;;;;4993659;28;20699;-80
2021/05/09 07:30:37;;;;;;;0.25;0.25;;;23.90;99.90;;;;;;4976267;28;20525;-80
2021/05/09 07:33:03;;;;;;;0.22;0.22;;;24.00;99.90;;;;;;4976250;28;20617;-79
2021/05/09 07:35:28;;;;;;;0.10;0.10;;;23.80;99.90;;;;;;4976571;28;20204;-81
2021/05/09 07:37:54;;;;;;;0.75;0.55;;;23.30;99.90;;;;;;4977508;28;20249;-80
2021/05/09 07:40:21;;;;;;;0.35;0.35;;;23.20;99.90;;;;;;4994517;28;20166;-81
2021/05/09 07:42:47;;;;;;;0.43;0.43;;;22.80;99.90;;;;;;4978888;28;20255;-81
2021/05/09 07:45:20;;;;;;;0.10;0.10;;;22.80;99.90;;;;;;4978386;28;20173;-83
2021/05/09 07:47:46;;;;;;;0.20;0.20;;;22.50;99.90;;;;;;4993466;28;20173;-81
2021/05/09 07:50:13;;;;;;;0.10;0.05;;;22.30;99.90;;;;;;4976070;28;20234;-81
2021/05/09 07:52:39;;;;;;;3.10;0.95;;;22.20;99.90;;;;;;4982414;28;20228;-81
2021/05/09 07:55:06;;;;;;;0.80;0.80;;;22.10;99.90;;;;;;5002378;28;20165;-89
2021/05/09 07:57:32;;;;;;;0.20;0.20;;;22.10;99.90;;;;;;4986310;28;20176;-90
2021/05/09 07:59:58;;;;;;;0.25;0.25;;;22.20;99.90;;;;;;4967671;28;20169;-87
2021/05/09 08:02:24;;;;;;;0.65;0.65;;;22.00;99.90;;;;;;4984103;28;20197;-87
2021/05/09 08:04:49;;;;;;;0.50;0.50;;;21.90;99.90;;;;;;4980893;28;20529;-88
2021/05/09 08:07:15;;;;;;;0.20;0.20;;;21.80;99.90;;;;;;4980941;28;20617;-82
2021/05/09 08:09:40;;;;;;;0.40;0.40;;;21.80;99.90;;;;;;4998129;28;20252;-81
2021/05/09 08:12:06;;;;;;;0.30;0.30;;;21.70;99.90;;;;;;4979549;28;20208;-81
2021/05/09 08:14:32;;;;;;;0.20;0.20;;;21.70;99.90;;;;;;4998821;28;20624;-81
2021/05/09 08:16:57;;;;;;;0.22;0.22;;;21.80;99.90;;;;;;4980820;28;20280;-84
2021/05/09 08:19:23;;;;;;;0.40;0.40;;;22.00;99.90;;;;;;4996880;28;20195;-81
2021/05/09 08:21:50;;;;;;;0.30;0.22;;;21.80;99.90;;;;;;4978531;28;20699;-81
2021/05/09 08:24:16;;;;;;;0.10;0.10;;;21.80;99.90;;;;;;4979050;28;20181;-83
2021/05/09 08:26:42;;;;;;;0.28;0.28;;;22.00;99.90;;;;;;4996416;28;20495;-81
2021/05/09 08:29:08;;;;;;;0.35;0.35;;;21.90;99.90;;;;;;4978893;28;20264;-83
2021/05/09 08:31:35;;;;;;;0.20;0.20;;;21.90;99.90;;;;;;4995893;28;20185;-80
2021/05/09 08:34:00;;;;;;;0.20;0.20;;;21.80;99.90;;;;;;4996320;28;20523;-82
2021/05/09 08:36:26;;;;;;;4.05;0.50;;;21.80;99.90;;;;;;4996955;28;20197;-82
2021/05/09 08:38:52;;;;;;;0.35;0.35;;;21.90;99.90;;;;;;4979217;28;20542;-77
2021/05/09 08:41:17;;;;;;;1.85;1.05;;;22.00;99.90;;;;;;4996127;28;20335;-78
2021/05/09 08:43:43;;;;;;;4.40;0.50;;;22.10;99.90;;;;;;4997066;28;20162;-79
2021/05/09 08:46:11;;;;;;;0.10;0.10;;;22.10;99.90;;;;;;4996702;28;20196;-78
2021/05/09 08:48:37;;;;;;;1.55;1.00;;;22.30;99.90;;;;;;4995712;28;20172;-78
2021/05/09 08:51:04;;;;;;;0.50;0.50;;;22.70;99.90;;;;;;4978096;28;20561;-78
2021/05/09 08:53:30;;;;;;;0.65;0.65;;;22.70;99.90;;;;;;4995410;28;20150;-78
2021/05/09 08:55:56;;;;;;;0.30;0.30;;;22.60;99.90;;;;;;4995521;28;20216;-78
2021/05/09 08:58:22;;;;;;;0.90;0.50;;;22.60;99.90;;;;;;4995639;28;20161;-80
2021/05/09 09:00:48;;;;;;;0.30;0.30;;;22.70;99.90;;;;;;4995365;28;20658;-79
2021/05/09 09:03:14;;;;;;;3.22;2.00;;;22.60;99.90;;;;;;4995032;28;20157;-79
2021/05/09 09:05:44;;;;;;;0.45;0.40;;;22.60;99.90;;;;;;4995476;28;20169;-79
2021/05/09 09:08:12;;;;;;;0.28;0.28;;;22.50;99.90;;;;;;4995570;28;20176;-81
2021/05/09 09:10:44;;;;;;;0.38;0.38;;;22.30;99.90;;;;;;4995436;28;20193;-80
2021/05/09 09:13:32;;;;;;;0.35;0.35;;;21.60;99.90;;;;;;4995409;28;20169;-80
2021/05/09 09:16:03;;;;;;;0.50;0.50;;;21.50;99.90;;;;;;4995265;28;20200;-78
2021/05/09 09:18:36;;;;;;;0.65;0.65;;;21.50;99.90;;;;;;4995364;28;20514;-79
2021/05/09 09:21:27;;;;;;;0.40;0.38;;;21.60;99.90;;;;;;4977635;28;20234;-80
2021/05/09 09:24:04;;;;;;;0.82;0.55;;;21.80;99.90;;;;;;4995146;28;20162;-78
2021/05/09 09:26:36;;;;;;;0.60;0.60;;;22.20;99.90;;;;;;4995215;28;20296;-78
2021/05/09 09:29:25;;;;;;;0.15;0.15;;;22.20;99.90;;;;;;4977606;28;20185;-79
2021/05/09 09:31:54;;;;;;;0.30;0.20;;;22.40;99.90;;;;;;4995132;28;20185;-78
2021/05/09 09:34:21;;;;;;;6.22;0.90;;;22.70;99.90;;;;;;4977478;28;20181;-82
2021/05/09 09:36:47;;;;;;;4.32;0.60;;;22.80;99.90;;;;;;4994955;28;20676;-80
2021/05/09 09:39:13;;;;;;;1.48;0.32;;;22.90;99.90;;;;;;4995255;28;20271;-79
2021/05/09 09:41:46;;;;;;;0.30;0.30;;;22.90;99.90;;;;;;4994898;28;20260;-78
2021/05/09 09:44:15;;;;;;;1.00;0.65;;;23.00;99.90;;;;;;4994941;28;20240;-79
2021/05/09 09:46:49;;;;;;;0.20;0.20;;;23.10;99.90;;;;;;4977747;28;20516;-78
2021/05/09 09:49:22;;;;;;;0.50;0.47;;;23.10;99.90;;;;;;4994957;28;20169;-79
2021/05/09 09:51:55;;;;;;;0.20;0.20;;;23.20;99.90;;;;;;4994395;28;20193;-76
2021/05/09 09:54:50;;;;;;;0.28;0.28;;;23.30;99.90;;;;;;4994186;28;20158;-76
2021/05/09 09:57:22;;;;;;;0.30;0.30;;;23.40;99.90;;;;;;4977887;28;20217;-75
2021/05/09 10:00:09;;;;;;;0.60;0.60;;;23.80;99.90;;;;;;4994384;28;20618;-76
2021/05/09 10:02:36;;;;;;;0.28;0.28;;;23.70;99.90;;;;;;4977026;28;20165;-82
2021/05/09 10:05:02;;;;;;;0.50;0.50;;;23.90;99.90;;;;;;4994279;28;20165;-78
2021/05/09 10:07:28;;;;;;;0.30;0.30;;;24.00;99.90;;;;;;4994586;28;20216;-82
2021/05/09 10:09:57;;;;;;;0.52;0.52;;;24.30;99.90;;;;;;4994373;28;20166;-78
2021/05/09 10:12:26;;;;;;;0.10;0.10;;;24.20;99.90;;;;;;4994167;28;20728;-78
2021/05/09 10:14:52;;;;;;;0.13;0.13;;;24.20;99.90;;;;;;4994816;28;20224;-83
2021/05/09 10:17:22;;;;;;;0.10;0.10;;;24.30;99.90;;;;;;4995251;28;20196;-84
2021/05/09 10:19:48;;;;;;;0.25;0.20;;;24.50;99.90;;;;;;4977407;28;20165;-83
2021/05/09 10:22:28;;;;;;;0.17;0.17;;;24.80;99.90;;;;;;4994751;28;20220;-85
2021/05/09 10:24:54;;;;;;;0.60;0.32;;;24.80;99.90;;;;;;4977374;28;20268;-83
2021/05/09 10:27:20;;;;;;;0.50;0.50;;;24.30;99.90;;;;;;4994771;28;20507;-86
2021/05/09 10:29:48;;;;;;;0.30;0.30;;;23.90;99.90;;;;;;4978106;28;20671;-86
2021/05/09 10:32:19;;;;;;;0.65;0.32;;;23.70;99.90;;;;;;4977697;28;20287;-85
2021/05/09 10:34:56;;;;;;;0.28;0.28;;;23.50;99.90;;;;;;4995577;28;20180;-86
2021/05/09 10:37:46;;;;;;;1.88;0.68;;;23.30;99.90;;;;;;4984275;28;20203;-84
2021/05/09 10:40:27;;;;;;;4.55;1.60;;;23.10;99.90;;;;;;4993751;28;20165;-81
2021/05/09 10:43:02;;;;;;;0.88;0.65;;;22.90;99.90;;;;;;4995719;28;20347;-82
2021/05/09 10:45:28;;;;;;;0.20;0.20;;;22.90;99.90;;;;;;5016309;28;20167;-81
2021/05/09 10:48:20;;;;;;;0.25;0.22;;;22.70;99.90;;;;;;5018748;28;20204;-81
2021/05/09 10:50:56;;;;;;;0.50;0.50;;;22.50;99.90;;;;;;5018266;28;20253;-84
2021/05/09 10:53:34;;;;;;;0.50;0.50;;;22.30;99.90;;;;;;4986101;28;20264;-82
2021/05/09 10:56:07;;;;;;;1.13;0.95;;;22.00;99.90;;;;;;4995473;28;20220;-85
2021/05/09 10:58:51;;;;;;;1.05;0.90;;;21.70;99.90;;;;;;4994829;28;20664;-81
2021/05/09 11:01:32;;;;;;;2.00;0.65;;;21.40;99.90;;;;;;4978857;28;20185;-87
2021/05/09 11:04:02;;;;;;;0.40;0.40;;;21.40;99.90;;;;;;4982001;28;20169;-92
2021/05/09 11:06:28;;;;;;;0.40;0.40;;;21.20;99.90;;;;;;4981883;28;20261;-88
2021/05/09 11:09:02;;;;;;;2.95;1.48;;;21.30;99.90;;;;;;4985659;28;20201;-82
2021/05/09 11:11:28;;;;;;;0.75;0.45;;;21.20;99.90;;;;;;5011489;28;20195;-81
2021/05/09 11:13:56;;;;;;;0.80;0.80;;;21.10;99.90;;;;;;4991505;28;20272;-81
2021/05/09 11:16:23;;;;;;;0.40;0.40;;;21.20;99.90;;;;;;4985531;28;20216;-81
2021/05/09 11:19:12;;;;;;;0.57;0.52;;;21.40;99.90;;;;;;4992006;28;20173;-81
2021/05/09 11:21:50;;;;;;;0.85;0.68;;;21.70;99.90;;;;;;4956376;28;20276;-81
2021/05/09 11:24:22;;;;;;;2.03;1.23;;;22.00;99.90;;;;;;4957088;28;20621;-82
2021/05/09 11:26:50;;;;;;;0.40;0.40;;;22.20;99.90;;;;;;4958828;28;20173;-81
2021/05/09 11:29:28;;;;;;;0.60;0.50;;;22.70;99.90;;;;;;4960908;28;20232;-82
2021/05/09 11:31:55;;;;;;;0.45;0.45;;;23.20;99.90;;;;;;4977657;28;20547;-83
2021/05/09 11:34:22;;;;;;;4.95;1.23;;;23.30;99.90;;;;;;4978691;28;20563;-82
2021/05/09 11:36:50;;;;;;;7.38;0.98;;;23.70;99.90;;;;;;4961373;28;20221;-82
2021/05/09 11:39:28;;;;;;;0.52;0.50;;;24.20;99.90;;;;;;4961799;28;20172;-82
2021/05/09 11:42:00;;;;;;;0.40;0.40;;;24.50;99.90;;;;;;4978142;28;20229;-82
2021/05/09 11:44:52;;;;;;;11.85;0.98;;;24.60;99.90;;;;;;4977770;28;20177;-84
2021/05/09 11:47:25;;;;;;;1.67;0.60;;;24.70;99.90;;;;;;4954563;28;20273;-82
2021/05/09 11:49:58;;;;;;;0.30;0.30;;;24.50;99.90;;;;;;4961272;28;20173;-82
2021/05/09 11:52:29;;;;;;;0.20;0.20;;;24.60;99.90;;;;;;4977478;28;20200;-81
2021/05/09 11:54:57;;;;;;;0.25;0.25;;;24.10;99.90;;;;;;4960145;28;20174;-82
2021/05/09 11:57:25;;;;;;;0.88;0.60;;;23.90;99.90;;;;;;4977424;28;20194;-80
2021/05/09 11:59:57;;;;;;;0.35;0.35;;;24.10;99.90;;;;;;4960237;28;20193;-82
2021/05/09 12:02:25;;;;;;;1.05;0.90;;;24.10;99.90;;;;;;4977200;28;20649;-82
2021/05/09 12:04:53;;;;;;;0.38;0.38;;;24.20;99.90;;;;;;4962298;28;20170;-81
2021/05/09 12:07:53;;;;;;;0.30;0.30;;;24.40;99.90;;;;;;4978381;28;20165;-81
2021/05/09 12:10:25;;;;;;;0.35;0.35;;;24.70;99.90;;;;;;4973532;28;20502;-81
2021/05/09 12:13:04;;;;;;;0.60;0.60;;;24.80;99.90;;;;;;4983975;28;20163;-80
2021/05/09 12:15:44;;;;;;;0.35;0.35;;;24.90;99.90;;;;;;4995192;28;20747;-82
2021/05/09 12:18:11;;;;;;;0.40;0.40;;;24.70;99.90;;;;;;4964949;28;20178;-82
2021/05/09 12:20:41;;;;;;;0.10;0.10;;;24.80;99.90;;;;;;4981887;28;20193;-81
2021/05/09 12:23:08;;;;;;;0.43;0.43;;;24.80;99.90;;;;;;4977904;28;20162;-82
2021/05/09 12:25:38;;;;;;;0.60;0.22;;;24.90;99.90;;;;;;4977924;28;20637;-82
2021/05/09 12:28:05;;;;;;;0.10;0.10;;;25.20;99.90;;;;;;4977796;28;20178;-82
2021/05/09 12:30:31;;;;;;;1.38;0.70;;;25.50;99.90;;;;;;4978983;28;20197;-84
2021/05/09 12:32:57;;;;;;;1.00;0.63;;;25.50;99.90;;;;;;4960297;28;20178;-82
2021/05/09 12:35:22;;;;;;;0.50;0.45;;;25.40;99.90;;;;;;4959992;28;20206;-82
2021/05/09 12:37:48;;;;;;;2.47;0.73;;;25.30;99.90;;;;;;4976480;28;20174;-82
2021/05/09 12:40:24;;;;;;;0.80;0.80;;;25.40;99.90;;;;;;4959772;28;20276;-82
2021/05/09 12:42:58;;;;;;;0.75;0.63;;;25.30;99.90;;;;;;4964593;28;20201;-82
2021/05/09 12:45:32;;;;;;;0.47;0.40;;;25.20;99.90;;;;;;4976727;28;20658;-83
2021/05/09 12:48:22;;;;;;;3.10;0.50;;;25.20;99.90;;;;;;4959120;28;20210;-82
2021/05/09 12:51:05;;;;;;;0.15;0.15;;;25.50;99.90;;;;;;4945772;28;20558;-83
2021/05/09 12:53:36;;;;;;;2.28;1.27;;;25.80;99.90;;;;;;4959354;28;20185;-83